createdAt,value
2022-12-04T00:00:47.358Z,101862.34
2022-12-04T00:03:54.914Z,101862.63
2022-12-04T00:06:59.101Z,101867.38
2022-12-04T00:10:03.937Z,101863.34
2022-12-04T00:13:06.800Z,101867.72
2022-12-04T00:16:15.693Z,101864.22
2022-12-04T00:19:19.777Z,101865.53
2022-12-04T00:22:22.894Z,101861.81
2022-12-04T00:25:26.870Z,101862.19
2022-12-04T00:28:29.760Z,101854.59
2022-12-04T00:31:35.546Z,101848.00
2022-12-04T00:34:38.282Z,101845.97
2022-12-04T00:37:42.263Z,101846.97
2022-12-04T00:40:51.787Z,101844.09
2022-12-04T00:43:55.800Z,101849.31
2022-12-04T00:47:01.595Z,101843.75
2022-12-04T00:50:04.863Z,101842.22
2022-12-04T00:53:08.829Z,101849.81
2022-12-04T00:56:14.094Z,101841.22
2022-12-04T00:59:18.077Z,101844.09
2022-12-04T01:02:23.442Z,101835.34
2022-12-04T01:05:26.154Z,101842.59
2022-12-04T01:08:30.244Z,101848.69
2022-12-04T01:11:33.590Z,101839.22
2022-12-04T01:14:37.635Z,101840.72
2022-12-04T01:17:41.739Z,101851.53
2022-12-04T01:20:50.235Z,101845.66
2022-12-04T01:23:54.494Z,101843.44
2022-12-04T01:26:57.203Z,101845.09
2022-12-04T01:30:01.336Z,101842.72
2022-12-04T01:33:05.441Z,101834.47
2022-12-04T01:36:12.240Z,101831.59
2022-12-04T01:39:16.439Z,101843.44
2022-12-04T01:42:20.467Z,101839.88
2022-12-04T01:45:44.617Z,101838.19
2022-12-04T01:48:53.967Z,101835.66
2022-12-04T01:52:01.123Z,101831.75
2022-12-04T01:55:03.896Z,101827.72
2022-12-04T01:58:09.003Z,101819.09
2022-12-04T02:01:11.948Z,101819.47
2022-12-04T02:04:17.392Z,101825.84
2022-12-04T02:07:20.343Z,101818.44
2022-12-04T02:10:32.172Z,101809.47
2022-12-04T02:13:44.451Z,101806.78
2022-12-04T02:16:55.291Z,101809.50
2022-12-04T02:24:03.488Z,101811.00
2022-12-04T02:27:15.332Z,101805.09
2022-12-04T02:30:19.734Z,101804.59
2022-12-04T02:33:28.727Z,101805.09
2022-12-04T02:36:37.508Z,101809.47
2022-12-04T02:39:43.160Z,101806.47
2022-12-04T02:42:51.009Z,101803.22
2022-12-04T02:46:00.748Z,101805.44
2022-12-04T02:52:33.065Z,101794.09
2022-12-04T02:55:41.023Z,101786.19
2022-12-04T02:58:49.357Z,101781.13
2022-12-04T03:05:27.046Z,101773.00
2022-12-04T03:08:36.339Z,101772.00
2022-12-04T03:11:45.800Z,101790.06
2022-12-04T03:14:53.695Z,101785.69
2022-12-04T03:18:05.705Z,101782.97
2022-12-04T03:21:14.069Z,101774.19
2022-12-04T03:24:25.721Z,101772.19
2022-12-04T03:27:36.622Z,101768.31
2022-12-04T03:30:44.677Z,101766.44
2022-12-04T03:33:50.837Z,101771.66
2022-12-04T03:36:57.099Z,101772.84
2022-12-04T03:40:06.305Z,101772.50
2022-12-04T03:43:15.732Z,101775.03
2022-12-04T03:46:28.173Z,101774.88
2022-12-04T03:49:40.344Z,101770.47
2022-12-04T03:52:53.585Z,101780.44
2022-12-04T03:56:04.301Z,101778.41
2022-12-04T03:59:13.711Z,101776.06
2022-12-04T04:02:20.955Z,101763.25
2022-12-04T04:05:29.668Z,101758.34
2022-12-04T04:08:37.396Z,101771.16
2022-12-04T04:11:46.611Z,101760.72
2022-12-04T04:15:13.451Z,101770.31
2022-12-04T04:18:33.711Z,101760.19
2022-12-04T04:21:58.494Z,101751.91
2022-12-04T04:25:05.202Z,101751.41
2022-12-04T04:28:30.582Z,101748.53
2022-12-04T04:31:40.477Z,101743.63
2022-12-04T04:34:51.260Z,101742.31
2022-12-04T04:38:03.950Z,101735.84
2022-12-04T04:41:13.408Z,101744.84
2022-12-04T04:44:23.497Z,101742.97
2022-12-04T04:47:32.016Z,101743.81
2022-12-04T04:50:37.505Z,101740.28
2022-12-04T04:53:46.467Z,101743.44
2022-12-04T04:56:50.455Z,101748.22
2022-12-04T04:59:53.633Z,101747.50
2022-12-04T05:02:56.690Z,101754.94
2022-12-04T05:05:59.486Z,101755.63
2022-12-04T05:09:04.887Z,101756.97
2022-12-04T05:12:07.726Z,101758.31
2022-12-04T05:15:12.760Z,101755.78
2022-12-04T05:18:16.693Z,101754.47
2022-12-04T05:21:19.700Z,101757.47
2022-12-04T05:24:23.774Z,101758.31
2022-12-04T05:27:28.735Z,101753.59
2022-12-04T05:30:31.419Z,101755.09
2022-12-04T05:33:35.404Z,101762.38
2022-12-04T05:36:39.582Z,101755.44
2022-12-04T05:39:44.040Z,101746.84
2022-12-04T05:42:47.982Z,101746.84
2022-12-04T05:45:50.695Z,101752.25
2022-12-04T05:48:54.686Z,101751.06
2022-12-04T05:51:58.879Z,101751.25
2022-12-04T05:55:02.930Z,101746.69
2022-12-04T05:58:07.074Z,101744.13
2022-12-04T06:01:14.378Z,101753.59
2022-12-04T06:07:38.872Z,101743.63
2022-12-04T06:10:44.464Z,101738.56
2022-12-04T06:13:48.807Z,101743.97
2022-12-04T06:16:51.548Z,101743.31
2022-12-04T06:19:57.267Z,101754.13
2022-12-04T06:23:00.309Z,101740.94
2022-12-04T06:26:07.448Z,101742.59
2022-12-04T06:29:12.726Z,101742.63
2022-12-04T06:32:21.459Z,101752.19
2022-12-04T06:35:24.868Z,101751.38
2022-12-04T06:41:50.965Z,101749.22
2022-12-04T06:44:54.923Z,101745.13
2022-12-04T06:47:58.860Z,101750.19
2022-12-04T06:51:03.559Z,101745.97
2022-12-04T06:54:07.540Z,101746.16
2022-12-04T06:57:12.871Z,101757.47
2022-12-04T07:00:16.747Z,101764.25
2022-12-04T07:03:19.462Z,101742.44
2022-12-04T07:06:24.935Z,101745.13
2022-12-04T07:09:28.911Z,101753.38
2022-12-04T07:12:33.025Z,101743.59
2022-12-04T07:15:38.151Z,101744.94
2022-12-04T07:18:41.006Z,101759.81
2022-12-04T07:21:45.827Z,101745.81
2022-12-04T07:24:48.533Z,101753.06
2022-12-04T07:27:53.826Z,101753.56
2022-12-04T07:30:56.548Z,101750.03
2022-12-04T07:34:00.915Z,101756.94
2022-12-04T07:37:03.771Z,101760.31
2022-12-04T07:40:09.419Z,101762.19
2022-12-04T07:43:13.503Z,101768.09
2022-12-04T07:46:19.926Z,101766.91
2022-12-04T07:49:22.704Z,101771.31
2022-12-04T07:52:26.647Z,101778.25
2022-12-04T07:55:29.306Z,101775.38
2022-12-04T07:58:35.142Z,101786.50
2022-12-04T08:01:37.908Z,101780.78
2022-12-04T08:04:41.942Z,101772.13
2022-12-04T08:07:46.188Z,101779.91
2022-12-04T08:10:50.175Z,101774.16
2022-12-04T08:13:58.026Z,101773.16
2022-12-04T08:17:00.814Z,101770.09
2022-12-04T08:20:05.115Z,101783.81
2022-12-04T08:23:07.814Z,101775.69
2022-12-04T08:26:12.815Z,101782.97
2022-12-04T08:29:18.156Z,101776.84
2022-12-04T08:32:20.841Z,101784.97
2022-12-04T08:35:24.836Z,101783.09
2022-12-04T08:38:27.514Z,101779.06
2022-12-04T08:41:31.511Z,101781.94
2022-12-04T08:44:35.539Z,101773.97
2022-12-04T08:47:39.574Z,101780.25
2022-12-04T08:50:46.249Z,101779.56
2022-12-04T08:53:50.241Z,101778.03
2022-12-04T08:56:54.190Z,101779.72
2022-12-04T08:59:58.585Z,101773.13
2022-12-04T09:03:02.726Z,101782.56
2022-12-04T09:06:07.011Z,101778.84
2022-12-04T09:09:10.968Z,101771.44
2022-12-04T09:12:13.729Z,101766.31
2022-12-04T09:15:19.261Z,101774.13
2022-12-04T09:18:22.014Z,101771.59
2022-12-04T09:21:27.334Z,101771.22
2022-12-04T09:24:30.837Z,101772.03
2022-12-04T09:27:38.760Z,101774.44
2022-12-04T09:30:42.868Z,101777.69
2022-12-04T09:33:47.486Z,101780.03
2022-12-04T09:36:50.267Z,101765.97
2022-12-04T09:39:54.476Z,101750.59
2022-12-04T09:43:05.180Z,101756.53
2022-12-04T09:46:14.995Z,101758.88
2022-12-04T09:49:23.682Z,101766.97
2022-12-04T09:52:42.349Z,101763.91
2022-12-04T09:55:52.750Z,101767.63
2022-12-04T09:59:02.567Z,101754.94
2022-12-04T10:02:28.944Z,101750.50
2022-12-04T10:05:43.906Z,101754.59
2022-12-04T10:08:52.177Z,101755.59
2022-12-04T10:12:04.052Z,101744.41
2022-12-04T10:15:21.727Z,101740.22
2022-12-04T10:18:42.613Z,101736.78
2022-12-04T10:21:56.484Z,101737.19
2022-12-04T10:25:04.846Z,101731.44
2022-12-04T10:28:29.707Z,101723.31
2022-12-04T10:31:33.752Z,101716.03
2022-12-04T10:34:44.063Z,101719.03
2022-12-04T10:37:52.472Z,101704.47
2022-12-04T10:41:02.134Z,101710.75
2022-12-04T10:44:06.583Z,101709.78
2022-12-04T10:47:12.192Z,101715.81
2022-12-04T10:50:21.747Z,101712.97
2022-12-04T10:53:31.751Z,101710.53
2022-12-04T10:56:35.780Z,101710.44
2022-12-04T10:59:41.109Z,101716.47
2022-12-04T11:02:45.427Z,101720.53
2022-12-04T11:05:57.781Z,101711.16
2022-12-04T11:09:03.245Z,101701.03
2022-12-04T11:12:09.669Z,101689.34
2022-12-04T11:15:16.955Z,101685.81
2022-12-04T11:18:21.587Z,101684.31
2022-12-04T11:21:30.058Z,101687.00
2022-12-04T11:24:35.544Z,101679.19
2022-12-04T11:31:04.467Z,101686.84
2022-12-04T11:34:09.891Z,101691.88
2022-12-04T11:40:49.386Z,101684.56
2022-12-04T11:43:59.399Z,101680.31
2022-12-04T11:47:24.574Z,101680.84
2022-12-04T11:50:48.268Z,101663.19
2022-12-04T11:54:01.296Z,101674.56
2022-12-04T11:57:17.686Z,101675.91
2022-12-04T12:03:58.740Z,101675.16
2022-12-04T12:07:17.006Z,101670.00
2022-12-04T12:10:30.447Z,101665.44
2022-12-04T12:13:44.261Z,101668.88
2022-12-04T12:16:59.282Z,101670.59
2022-12-04T12:20:16.859Z,101659.00
2022-12-04T12:23:31.363Z,101662.69
2022-12-04T12:26:46.804Z,101655.56
2022-12-04T12:29:59.171Z,101652.56
2022-12-04T12:33:13.011Z,101652.69
2022-12-04T12:36:17.756Z,101652.44
2022-12-04T12:39:25.928Z,101653.91
2022-12-04T12:42:36.877Z,101651.22
2022-12-04T12:45:46.700Z,101652.56
2022-12-04T12:48:58.577Z,101663.75
2022-12-04T12:52:06.460Z,101651.22
2022-12-04T12:55:19.282Z,101659.72
2022-12-04T12:58:31.570Z,101653.28
2022-12-04T13:01:46.711Z,101640.59
2022-12-04T13:04:53.025Z,101648.53
2022-12-04T13:08:05.898Z,101659.38
2022-12-04T13:11:14.828Z,101652.13
2022-12-04T13:14:20.179Z,101659.84
2022-12-04T13:17:29.642Z,101646.66
2022-12-04T13:20:41.438Z,101646.38
2022-12-04T13:23:56.653Z,101654.41
2022-12-04T13:30:41.045Z,101648.91
2022-12-04T13:34:10.139Z,101640.53
2022-12-04T13:37:33.097Z,101641.19
2022-12-04T13:40:41.114Z,101640.00
2022-12-04T13:43:49.588Z,101626.25
2022-12-04T13:46:58.410Z,101606.34
2022-12-04T13:50:29.679Z,101604.41
2022-12-04T13:53:34.184Z,101615.66
2022-12-04T13:56:38.124Z,101604.09
2022-12-04T14:03:08.514Z,101602.31
2022-12-04T14:06:25.424Z,101598.13
2022-12-04T14:09:31.920Z,101599.09
2022-12-04T14:12:38.818Z,101598.41
2022-12-04T14:15:43.320Z,101591.56
2022-12-04T14:18:50.708Z,101597.78
2022-12-04T14:21:55.323Z,101598.72
2022-12-04T14:25:21.247Z,101595.22
2022-12-04T14:28:42.173Z,101594.56
2022-12-04T14:31:45.151Z,101603.56
2022-12-04T14:34:51.824Z,101613.03
2022-12-04T14:37:58.362Z,101616.00
2022-12-04T14:44:31.674Z,101604.78
2022-12-04T14:47:45.237Z,101605.69
2022-12-04T14:50:58.477Z,101598.47
2022-12-04T14:54:11.628Z,101598.78
2022-12-04T14:57:29.582Z,101599.19
2022-12-04T15:00:33.685Z,101599.19
2022-12-04T15:03:42.368Z,101605.06
2022-12-04T15:06:55.401Z,101597.06
2022-12-04T15:10:21.435Z,101599.84
2022-12-04T15:13:29.294Z,101600.63
2022-12-04T15:16:32.061Z,101597.38
2022-12-04T15:19:36.071Z,101593.97
2022-12-04T15:22:40.248Z,101590.81
2022-12-04T15:25:47.999Z,101592.56
2022-12-04T15:28:53.585Z,101601.53
2022-12-04T15:35:29.410Z,101598.63
2022-12-04T15:38:35.524Z,101607.50
2022-12-04T15:41:38.636Z,101613.09
2022-12-04T15:44:53.868Z,101605.25
2022-12-04T15:47:58.607Z,101604.53
2022-12-04T15:51:06.590Z,101616.94
2022-12-04T15:54:22.329Z,101618.63
2022-12-04T15:57:29.009Z,101612.72
2022-12-04T16:00:37.440Z,101611.16
2022-12-04T16:03:49.136Z,101614.69
2022-12-04T16:06:54.948Z,101621.25
2022-12-04T16:10:04.088Z,101613.19
2022-12-04T16:13:08.402Z,101617.25
2022-12-04T16:16:14.944Z,101622.66
2022-12-04T16:19:28.435Z,101615.47
2022-12-04T16:22:31.388Z,101608.09
2022-12-04T16:25:36.731Z,101609.28
2022-12-04T16:28:39.448Z,101611.97
2022-12-04T16:31:43.509Z,101605.13
2022-12-04T16:38:10.009Z,101606.97
2022-12-04T16:41:16.523Z,101610.72
2022-12-04T16:44:20.596Z,101611.09
2022-12-04T16:47:23.720Z,101609.97
2022-12-04T16:50:28.106Z,101615.66
2022-12-04T16:53:30.836Z,101605.84
2022-12-04T16:56:36.212Z,101611.09
2022-12-04T16:59:40.348Z,101609.47
2022-12-04T17:02:44.121Z,101611.16
2022-12-04T17:05:48.194Z,101612.13
2022-12-04T17:08:50.897Z,101587.88
2022-12-04T17:11:56.207Z,101590.72
2022-12-04T17:14:59.106Z,101595.41
2022-12-04T17:18:07.392Z,101592.25
2022-12-04T17:21:13.798Z,101597.72
2022-12-04T17:24:17.777Z,101597.34
2022-12-04T17:27:23.240Z,101604.66
2022-12-04T17:30:31.372Z,101594.38
2022-12-04T17:33:37.086Z,101598.84
2022-12-04T17:36:41.025Z,101606.97
2022-12-04T17:39:45.000Z,101597.34
2022-12-04T17:42:50.573Z,101598.13
2022-12-04T17:45:54.527Z,101595.31
2022-12-04T17:48:59.565Z,101595.53
2022-12-04T17:52:07.005Z,101598.50
2022-12-04T17:55:10.202Z,101597.66
2022-12-04T17:58:15.572Z,101584.59
2022-12-04T18:01:20.650Z,101588.22
2022-12-04T18:04:24.833Z,101587.19
2022-12-04T18:07:27.722Z,101597.47
2022-12-04T18:10:31.813Z,101597.75
2022-12-04T18:13:36.190Z,101597.94
2022-12-04T18:16:42.593Z,101596.47
2022-12-04T18:19:45.376Z,101595.25
2022-12-04T18:22:49.358Z,101591.94
2022-12-04T18:25:57.166Z,101591.19
2022-12-04T18:29:01.364Z,101591.03
2022-12-04T18:32:05.583Z,101594.28
2022-12-04T18:35:10.282Z,101594.78
2022-12-04T18:38:14.220Z,101586.16
2022-12-04T18:41:16.951Z,101587.00
2022-12-04T18:44:22.735Z,101586.28
2022-12-04T18:47:28.054Z,101595.91
2022-12-04T18:50:30.754Z,101585.44
2022-12-04T18:53:34.757Z,101590.84
2022-12-04T18:56:37.753Z,101587.00
2022-12-04T18:59:43.182Z,101594.28
2022-12-04T19:02:46.917Z,101599.25
2022-12-04T19:05:51.775Z,101600.09
2022-12-04T19:08:54.502Z,101595.72
2022-12-04T19:11:58.508Z,101596.09
2022-12-04T19:15:02.659Z,101600.66
2022-12-04T19:21:29.283Z,101605.25
2022-12-04T19:24:32.213Z,101602.81
2022-12-04T19:27:36.260Z,101614.84
2022-12-04T19:30:40.346Z,101604.88
2022-12-04T19:33:44.319Z,101606.41
2022-12-04T19:36:47.282Z,101602.81
2022-12-04T19:39:51.282Z,101599.38
2022-12-04T19:43:01.108Z,101611.97
2022-12-04T19:46:09.226Z,101605.44
2022-12-04T19:52:34.714Z,101610.97
2022-12-04T19:55:39.037Z,101613.13
2022-12-04T19:58:43.615Z,101603.84
2022-12-04T20:01:48.048Z,101609.03
2022-12-04T20:04:52.128Z,101591.84
2022-12-04T20:07:56.094Z,101597.06
2022-12-04T20:11:04.375Z,101591.53
2022-12-04T20:14:08.541Z,101594.63
2022-12-04T20:17:13.917Z,101586.88
2022-12-04T20:20:18.142Z,101584.03
2022-12-04T20:23:20.833Z,101588.75
2022-12-04T20:26:26.568Z,101583.31
2022-12-04T20:29:29.264Z,101580.69
2022-12-04T20:32:36.226Z,101577.44
2022-12-04T20:35:40.986Z,101569.66
2022-12-04T20:38:45.082Z,101572.47
2022-12-04T20:41:48.136Z,101560.44
2022-12-04T20:44:52.093Z,101563.25
2022-12-04T20:47:58.462Z,101563.53
2022-12-04T20:51:01.918Z,101562.88
2022-12-04T20:54:06.711Z,101562.09
2022-12-04T20:57:09.713Z,101566.31
2022-12-04T21:00:15.724Z,101567.34
2022-12-04T21:03:21.098Z,101560.16
2022-12-04T21:06:29.629Z,101573.91
2022-12-04T21:09:36.633Z,101568.56
2022-12-04T21:12:56.823Z,101574.16
2022-12-04T21:16:06.566Z,101575.19
2022-12-04T21:19:12.111Z,101569.13
2022-12-04T21:22:16.375Z,101566.41
2022-12-04T21:25:19.210Z,101563.31
2022-12-04T21:28:23.186Z,101567.72
2022-12-04T21:34:53.142Z,101554.81
2022-12-04T21:37:56.676Z,101552.22
2022-12-04T21:41:00.585Z,101559.50
2022-12-04T21:44:05.370Z,101557.16
2022-12-04T21:47:09.472Z,101557.25
2022-12-04T21:50:13.622Z,101549.38
2022-12-04T21:53:17.694Z,101553.25
2022-12-04T21:56:20.432Z,101552.66
2022-12-04T21:59:24.513Z,101546.41
2022-12-04T22:02:28.615Z,101552.28
2022-12-04T22:05:35.398Z,101544.63
2022-12-04T22:08:41.435Z,101547.16
2022-12-04T22:11:44.769Z,101545.28
2022-12-04T22:18:09.808Z,101541.13
2022-12-04T22:24:37.127Z,101533.03
2022-12-04T22:27:41.129Z,101542.00
2022-12-04T22:30:44.112Z,101538.06
2022-12-04T22:33:49.223Z,101542.00
2022-12-04T22:36:54.551Z,101536.84
2022-12-04T22:39:57.455Z,101537.03
2022-12-04T22:43:01.618Z,101530.31
2022-12-04T22:46:04.605Z,101527.78
2022-12-04T22:49:08.656Z,101523.19
2022-12-04T22:52:13.946Z,101533.59
2022-12-04T22:55:16.754Z,101512.44
2022-12-04T22:58:20.743Z,101517.53
2022-12-04T23:01:25.162Z,101520.03
2022-12-04T23:04:29.408Z,101517.88
2022-12-04T23:07:33.536Z,101521.16
2022-12-04T23:10:39.554Z,101524.25
2022-12-04T23:13:44.275Z,101515.63
2022-12-04T23:16:47.275Z,101510.31
2022-12-04T23:19:51.413Z,101510.31
2022-12-04T23:22:57.367Z,101508.16
2022-12-04T23:26:03.051Z,101506.00
2022-12-04T23:29:29.517Z,101506.56
2022-12-04T23:32:31.613Z,101502.63
2022-12-04T23:35:34.299Z,101499.28
2022-12-04T23:38:42.722Z,101492.00
2022-12-04T23:41:46.743Z,101503.56
2022-12-04T23:44:49.447Z,101497.50
2022-12-04T23:47:53.417Z,101498.50
2022-12-04T23:50:56.252Z,101499.06
2022-12-04T23:54:01.581Z,101503.44
2022-12-04T23:57:05.692Z,101498.41
